sensor_id;sensor_type;location;lat;lon;timestamp;pressure;altitude;pressure_sealevel;temperature;humidity
9187;BME280;7273;48.902;9.410;2023-12-07T00:01:33;98358.63;;;2.71;86.39
9187;BME280;7273;48.902;9.410;2023-12-07T00:04:03;98358.56;;;2.78;86.12
9187;BME280;7273;48.902;9.410;2023-12-07T00:06:28;98356.91;;;2.77;86.66
9187;BME280;7273;48.902;9.410;2023-12-07T00:08:54;98360.00;;;2.74;86.21
9187;BME280;7273;48.902;9.410;2023-12-07T00:11:22;98359.34;;;2.78;86.21
9187;BME280;7273;48.902;9.410;2023-12-07T00:13:48;98361.63;;;2.75;86.36
9187;BME280;7273;48.902;9.410;2023-12-07T00:16:14;98360.84;;;2.74;86.39
9187;BME280;7273;48.902;9.410;2023-12-07T00:18:40;98362.09;;;2.72;86.39
9187;BME280;7273;48.902;9.410;2023-12-07T00:21:08;98348.88;;;2.77;86.82
9187;BME280;7273;48.902;9.410;2023-12-07T00:23:34;98362.47;;;2.75;86.57
9187;BME280;7273;48.902;9.410;2023-12-07T00:26:00;98353.84;;;2.73;86.71
9187;BME280;7273;48.902;9.410;2023-12-07T00:28:25;98356.75;;;2.72;86.14
9187;BME280;7273;48.902;9.410;2023-12-07T00:30:51;98349.63;;;2.66;86.36
9187;BME280;7273;48.902;9.410;2023-12-07T00:33:17;98357.13;;;2.75;86.51
9187;BME280;7273;48.902;9.410;2023-12-07T00:35:43;98354.47;;;2.75;86.56
9187;BME280;7273;48.902;9.410;2023-12-07T00:38:09;98356.69;;;2.78;86.26
9187;BME280;7273;48.902;9.410;2023-12-07T00:40:36;98369.66;;;2.75;86.27
9187;BME280;7273;48.902;9.410;2023-12-07T00:43:04;98369.06;;;2.73;86.44
9187;BME280;7273;48.902;9.410;2023-12-07T00:45:29;98368.25;;;2.72;86.42
9187;BME280;7273;48.902;9.410;2023-12-07T00:47:56;98377.47;;;2.77;86.84
9187;BME280;7273;48.902;9.410;2023-12-07T00:50:22;98372.75;;;2.72;86.93
9187;BME280;7273;48.902;9.410;2023-12-07T00:52:47;98376.47;;;2.71;86.54
9187;BME280;7273;48.902;9.410;2023-12-07T00:55:14;98387.31;;;2.76;86.97
9187;BME280;7273;48.902;9.410;2023-12-07T00:57:40;98389.38;;;2.74;86.88
9187;BME280;7273;48.902;9.410;2023-12-07T01:00:08;98377.38;;;2.65;86.77
9187;BME280;7273;48.902;9.410;2023-12-07T01:02:34;98381.00;;;2.70;86.89
9187;BME280;7273;48.902;9.410;2023-12-07T01:04:59;98376.91;;;2.68;86.77
9187;BME280;7273;48.902;9.410;2023-12-07T01:07:25;98382.66;;;2.71;87.16
9187;BME280;7273;48.902;9.410;2023-12-07T01:09:50;98379.16;;;2.71;86.51
9187;BME280;7273;48.902;9.410;2023-12-07T01:12:16;98388.44;;;2.62;86.95
9187;BME280;7273;48.902;9.410;2023-12-07T01:14:41;98384.75;;;2.63;86.99
9187;BME280;7273;48.902;9.410;2023-12-07T01:17:07;98390.75;;;2.58;86.72
9187;BME280;7273;48.902;9.410;2023-12-07T01:19:32;98397.34;;;2.56;87.10
9187;BME280;7273;48.902;9.410;2023-12-07T01:21:59;98397.28;;;2.62;87.13
9187;BME280;7273;48.902;9.410;2023-12-07T01:24:25;98400.41;;;2.59;87.16
9187;BME280;7273;48.902;9.410;2023-12-07T01:26:50;98406.06;;;2.69;87.27
9187;BME280;7273;48.902;9.410;2023-12-07T01:29:16;98407.75;;;2.64;87.18
9187;BME280;7273;48.902;9.410;2023-12-07T01:31:43;98414.28;;;2.68;87.25
9187;BME280;7273;48.902;9.410;2023-12-07T01:34:09;98410.19;;;2.65;86.84
9187;BME280;7273;48.902;9.410;2023-12-07T01:36:35;98410.81;;;2.67;87.06
9187;BME280;7273;48.902;9.410;2023-12-07T01:39:01;98406.28;;;2.68;86.87
9187;BME280;7273;48.902;9.410;2023-12-07T01:41:26;98404.22;;;2.70;86.76
9187;BME280;7273;48.902;9.410;2023-12-07T01:43:52;98412.22;;;2.70;86.86
9187;BME280;7273;48.902;9.410;2023-12-07T01:46:18;98414.47;;;2.73;86.67
9187;BME280;7273;48.902;9.410;2023-12-07T01:48:43;98414.84;;;2.77;87.26
9187;BME280;7273;48.902;9.410;2023-12-07T01:51:10;98410.97;;;2.72;87.14
9187;BME280;7273;48.902;9.410;2023-12-07T01:53:38;98419.38;;;2.76;86.69
9187;BME280;7273;48.902;9.410;2023-12-07T01:56:04;98414.28;;;2.68;87.02
9187;BME280;7273;48.902;9.410;2023-12-07T01:58:32;98417.41;;;2.65;87.21
9187;BME280;7273;48.902;9.410;2023-12-07T02:00:58;98408.13;;;2.67;87.15
9187;BME280;7273;48.902;9.410;2023-12-07T02:03:24;98409.41;;;2.65;87.21
9187;BME280;7273;48.902;9.410;2023-12-07T02:05:51;98406.28;;;2.68;86.80
9187;BME280;7273;48.902;9.410;2023-12-07T02:08:17;98411.19;;;2.71;86.91
9187;BME280;7273;48.902;9.410;2023-12-07T02:10:43;98408.72;;;2.69;87.08
9187;BME280;7273;48.902;9.410;2023-12-07T02:13:08;98409.56;;;2.70;87.13
9187;BME280;7273;48.902;9.410;2023-12-07T02:15:35;98414.69;;;2.71;86.72
9187;BME280;7273;48.902;9.410;2023-12-07T02:18:25;98409.28;;;2.78;87.07
9187;BME280;7273;48.902;9.410;2023-12-07T02:23:30;98415.25;;;2.73;86.85
9187;BME280;7273;48.902;9.410;2023-12-07T02:26:03;98415.47;;;2.72;86.63
9187;BME280;7273;48.902;9.410;2023-12-07T02:28:29;98415.19;;;2.80;86.95
9187;BME280;7273;48.902;9.410;2023-12-07T02:30:55;98418.91;;;2.79;87.22
9187;BME280;7273;48.902;9.410;2023-12-07T02:33:20;98423.66;;;2.77;87.12
9187;BME280;7273;48.902;9.410;2023-12-07T02:35:46;98419.59;;;2.74;86.86
9187;BME280;7273;48.902;9.410;2023-12-07T02:38:12;98416.78;;;2.63;86.82
9187;BME280;7273;48.902;9.410;2023-12-07T02:40:39;98416.75;;;2.69;87.16
9187;BME280;7273;48.902;9.410;2023-12-07T02:43:06;98424.19;;;2.61;87.10
9187;BME280;7273;48.902;9.410;2023-12-07T02:45:33;98422.09;;;2.69;87.13
9187;BME280;7273;48.902;9.410;2023-12-07T02:47:58;98411.47;;;2.63;87.13
9187;BME280;7273;48.902;9.410;2023-12-07T02:50:24;98419.56;;;2.50;87.06
9187;BME280;7273;48.902;9.410;2023-12-07T02:52:49;98418.97;;;2.48;87.43
9187;BME280;7273;48.902;9.410;2023-12-07T02:55:15;98419.41;;;2.45;87.08
9187;BME280;7273;48.902;9.410;2023-12-07T02:57:40;98421.84;;;2.46;87.36
9187;BME280;7273;48.902;9.410;2023-12-07T03:00:06;98418.97;;;2.48;87.26
9187;BME280;7273;48.902;9.410;2023-12-07T03:02:37;98423.69;;;2.46;87.52
9187;BME280;7273;48.902;9.410;2023-12-07T03:05:03;98419.78;;;2.48;87.50
9187;BME280;7273;48.902;9.410;2023-12-07T03:07:29;98420.97;;;2.52;87.57
9187;BME280;7273;48.902;9.410;2023-12-07T03:09:54;98427.34;;;2.51;87.09
9187;BME280;7273;48.902;9.410;2023-12-07T03:12:20;98428.41;;;2.44;87.36
9187;BME280;7273;48.902;9.410;2023-12-07T03:14:45;98429.25;;;2.44;87.37
9187;BME280;7273;48.902;9.410;2023-12-07T03:17:10;98429.91;;;2.40;87.03
9187;BME280;7273;48.902;9.410;2023-12-07T03:19:39;98431.47;;;2.47;87.52
9187;BME280;7273;48.902;9.410;2023-12-07T03:22:05;98430.50;;;2.42;87.29
9187;BME280;7273;48.902;9.410;2023-12-07T03:24:37;98432.34;;;2.41;86.75
9187;BME280;7273;48.902;9.410;2023-12-07T03:27:03;98429.91;;;2.40;87.03
9187;BME280;7273;48.902;9.410;2023-12-07T03:29:28;98427.66;;;2.37;86.91
9187;BME280;7273;48.902;9.410;2023-12-07T03:31:54;98422.06;;;2.45;86.89
9187;BME280;7273;48.902;9.410;2023-12-07T03:34:19;98425.38;;;2.40;87.11
9187;BME280;7273;48.902;9.410;2023-12-07T03:36:45;98425.44;;;2.34;87.03
9187;BME280;7273;48.902;9.410;2023-12-07T03:39:12;98421.53;;;2.30;86.86
9187;BME280;7273;48.902;9.410;2023-12-07T03:41:38;98417.25;;;2.29;86.68
9187;BME280;7273;48.902;9.410;2023-12-07T03:44:03;98418.69;;;2.25;87.20
9187;BME280;7273;48.902;9.410;2023-12-07T03:46:29;98419.34;;;2.20;87.13
9187;BME280;7273;48.902;9.410;2023-12-07T03:48:54;98418.13;;;2.16;87.27
9187;BME280;7273;48.902;9.410;2023-12-07T03:51:19;98422.66;;;2.16;87.30
9187;BME280;7273;48.902;9.410;2023-12-07T03:53:45;98419.59;;;2.12;86.79
9187;BME280;7273;48.902;9.410;2023-12-07T03:56:10;98432.72;;;2.14;87.04
9187;BME280;7273;48.902;9.410;2023-12-07T03:58:36;98437.22;;;2.13;87.00
9187;BME280;7273;48.902;9.410;2023-12-07T04:01:01;98443.03;;;2.04;86.83
9187;BME280;7273;48.902;9.410;2023-12-07T04:03:26;98441.56;;;2.14;86.98
9187;BME280;7273;48.902;9.410;2023-12-07T04:05:52;98436.63;;;2.11;86.78
9187;BME280;7273;48.902;9.410;2023-12-07T04:08:18;98441.63;;;2.01;87.08
9187;BME280;7273;48.902;9.410;2023-12-07T04:10:43;98443.47;;;2.01;87.08
9187;BME280;7273;48.902;9.410;2023-12-07T04:13:09;98446.97;;;2.01;86.90
9187;BME280;7273;48.902;9.410;2023-12-07T04:15:34;98447.34;;;1.98;87.24
9187;BME280;7273;48.902;9.410;2023-12-07T04:17:59;98451.28;;;1.96;86.54
9187;BME280;7273;48.902;9.410;2023-12-07T04:20:25;98451.09;;;1.91;87.19
9187;BME280;7273;48.902;9.410;2023-12-07T04:22:50;98455.38;;;1.92;87.33
9187;BME280;7273;48.902;9.410;2023-12-07T04:25:16;98446.38;;;1.93;87.18
9187;BME280;7273;48.902;9.410;2023-12-07T04:27:41;98455.81;;;1.89;86.93
9187;BME280;7273;48.902;9.410;2023-12-07T04:30:07;98449.88;;;1.87;87.34
9187;BME280;7273;48.902;9.410;2023-12-07T04:32:32;98451.56;;;1.81;87.13
9187;BME280;7273;48.902;9.410;2023-12-07T04:34:57;98445.56;;;1.92;87.10
9187;BME280;7273;48.902;9.410;2023-12-07T04:37:23;98446.41;;;1.86;87.25
9187;BME280;7273;48.902;9.410;2023-12-07T04:39:48;98450.47;;;1.89;87.45
9187;BME280;7273;48.902;9.410;2023-12-07T04:42:14;98453.59;;;1.79;87.25
9187;BME280;7273;48.902;9.410;2023-12-07T04:44:39;98450.94;;;1.79;87.12
9187;BME280;7273;48.902;9.410;2023-12-07T04:47:05;98448.09;;;1.74;87.23
9187;BME280;7273;48.902;9.410;2023-12-07T04:49:30;98450.13;;;1.72;87.01
9187;BME280;7273;48.902;9.410;2023-12-07T04:51:55;98455.25;;;1.74;87.03
9187;BME280;7273;48.902;9.410;2023-12-07T04:54:21;98452.00;;;1.72;86.79
9187;BME280;7273;48.902;9.410;2023-12-07T04:56:46;98446.69;;;1.65;86.77
9187;BME280;7273;48.902;9.410;2023-12-07T04:59:12;98449.19;;;1.60;86.52
9187;BME280;7273;48.902;9.410;2023-12-07T05:01:37;98452.66;;;1.54;86.96
9187;BME280;7273;48.902;9.410;2023-12-07T05:04:03;98450.63;;;1.50;87.04
9187;BME280;7273;48.902;9.410;2023-12-07T05:06:30;98444.91;;;1.46;86.89
9187;BME280;7273;48.902;9.410;2023-12-07T05:08:55;98458.63;;;1.50;86.93
9187;BME280;7273;48.902;9.410;2023-12-07T05:11:21;98454.56;;;1.41;86.66
9187;BME280;7273;48.902;9.410;2023-12-07T05:13:46;98464.38;;;1.47;86.67
9187;BME280;7273;48.902;9.410;2023-12-07T05:16:13;98459.88;;;1.47;87.00
9187;BME280;7273;48.902;9.410;2023-12-07T05:18:38;98467.47;;;1.37;86.95
9187;BME280;7273;48.902;9.410;2023-12-07T05:21:04;98463.16;;;1.29;86.56
9187;BME280;7273;48.902;9.410;2023-12-07T05:23:29;98466.03;;;1.28;86.29
9187;BME280;7273;48.902;9.410;2023-12-07T05:25:55;98468.09;;;1.32;86.59
9187;BME280;7273;48.902;9.410;2023-12-07T05:28:20;98473.25;;;1.21;86.57
9187;BME280;7273;48.902;9.410;2023-12-07T05:30:45;98464.44;;;1.20;86.88
9187;BME280;7273;48.902;9.410;2023-12-07T05:33:11;98476.91;;;1.20;86.83
9187;BME280;7273;48.902;9.410;2023-12-07T05:35:37;98481.63;;;1.11;86.60
9187;BME280;7273;48.902;9.410;2023-12-07T05:38:02;98480.63;;;0.99;86.91
9187;BME280;7273;48.902;9.410;2023-12-07T05:40:27;98484.09;;;0.93;87.19
9187;BME280;7273;48.902;9.410;2023-12-07T05:42:53;98485.94;;;0.73;86.59
9187;BME280;7273;48.902;9.410;2023-12-07T05:45:18;98483.09;;;0.68;86.72
9187;BME280;7273;48.902;9.410;2023-12-07T05:47:44;98481.41;;;0.54;86.79
9187;BME280;7273;48.902;9.410;2023-12-07T05:50:09;98480.59;;;0.47;86.71
9187;BME280;7273;48.902;9.410;2023-12-07T05:52:35;98487.53;;;0.42;87.14
9187;BME280;7273;48.902;9.410;2023-12-07T05:55:00;98483.03;;;0.36;87.07
9187;BME280;7273;48.902;9.410;2023-12-07T05:57:26;98484.47;;;0.38;87.58
9187;BME280;7273;48.902;9.410;2023-12-07T05:59:51;98483.03;;;0.36;87.73
9187;BME280;7273;48.902;9.410;2023-12-07T06:02:17;98471.13;;;0.25;87.30
9187;BME280;7273;48.902;9.410;2023-12-07T06:04:42;98477.28;;;0.26;87.61
9187;BME280;7273;48.902;9.410;2023-12-07T06:07:07;98480.38;;;0.36;87.79
9187;BME280;7273;48.902;9.410;2023-12-07T06:09:33;98474.22;;;0.42;88.26
9187;BME280;7273;48.902;9.410;2023-12-07T06:11:59;98479.34;;;0.37;87.60
9187;BME280;7273;48.902;9.410;2023-12-07T06:14:25;98471.56;;;0.35;87.76
9187;BME280;7273;48.902;9.410;2023-12-07T06:16:50;98470.53;;;0.36;88.30
9187;BME280;7273;48.902;9.410;2023-12-07T06:19:15;98469.53;;;0.37;88.40
9187;BME280;7273;48.902;9.410;2023-12-07T06:21:41;98466.47;;;0.40;88.42
9187;BME280;7273;48.902;9.410;2023-12-07T06:24:06;98474.66;;;0.45;88.34
9187;BME280;7273;48.902;9.410;2023-12-07T06:26:32;98473.63;;;0.53;88.45
9187;BME280;7273;48.902;9.410;2023-12-07T06:28:58;98478.56;;;0.62;88.72
9187;BME280;7273;48.902;9.410;2023-12-07T06:31:23;98480.22;;;0.63;88.50
9187;BME280;7273;48.902;9.410;2023-12-07T06:33:49;98467.91;;;0.62;88.34
9187;BME280;7273;48.902;9.410;2023-12-07T06:36:21;98473.84;;;0.58;88.61
9187;BME280;7273;48.902;9.410;2023-12-07T06:38:47;98468.94;;;0.61;88.76
9187;BME280;7273;48.902;9.410;2023-12-07T06:41:14;98471.19;;;0.58;88.61
9187;BME280;7273;48.902;9.410;2023-12-07T06:43:40;98471.38;;;0.56;88.17
9187;BME280;7273;48.902;9.410;2023-12-07T06:46:06;98472.63;;;0.60;88.84
9187;BME280;7273;48.902;9.410;2023-12-07T06:48:31;98478.97;;;0.66;88.69
9187;BME280;7273;48.902;9.410;2023-12-07T06:50:57;98478.56;;;0.69;88.52
9187;BME280;7273;48.902;9.410;2023-12-07T06:53:23;98480.84;;;0.78;88.41
9187;BME280;7273;48.902;9.410;2023-12-07T06:55:48;98485.75;;;0.68;87.99
9187;BME280;7273;48.902;9.410;2023-12-07T06:58:14;98480.22;;;0.76;88.19
9187;BME280;7273;48.902;9.410;2023-12-07T07:00:39;98480.22;;;0.70;87.97
9187;BME280;7273;48.902;9.410;2023-12-07T07:03:05;98484.72;;;0.69;88.28
9187;BME280;7273;48.902;9.410;2023-12-07T07:05:31;98488.81;;;0.65;87.52
9187;BME280;7273;48.902;9.410;2023-12-07T07:07:57;98488.38;;;0.55;87.30
9187;BME280;7273;48.902;9.410;2023-12-07T07:10:22;98491.25;;;0.60;87.89
9187;BME280;7273;48.902;9.410;2023-12-07T07:12:48;98493.91;;;0.54;87.18
9187;BME280;7273;48.902;9.410;2023-12-07T07:15:14;98486.94;;;0.53;87.27
9187;BME280;7273;48.902;9.410;2023-12-07T07:17:39;98496.97;;;0.51;87.36
9187;BME280;7273;48.902;9.410;2023-12-07T07:20:05;98487.94;;;0.45;87.28
9187;BME280;7273;48.902;9.410;2023-12-07T07:22:31;98482.59;;;0.32;86.95
9187;BME280;7273;48.902;9.410;2023-12-07T07:24:56;98473.19;;;0.36;87.59
9187;BME280;7273;48.902;9.410;2023-12-07T07:27:21;98483.44;;;0.39;87.57
9187;BME280;7273;48.902;9.410;2023-12-07T07:29:47;98485.09;;;0.40;87.38
9187;BME280;7273;48.902;9.410;2023-12-07T07:32:12;98487.53;;;0.42;87.67
9187;BME280;7273;48.902;9.410;2023-12-07T07:34:38;98485.91;;;0.41;87.25
9187;BME280;7273;48.902;9.410;2023-12-07T07:37:05;98491.03;;;0.49;87.21
9187;BME280;7273;48.902;9.410;2023-12-07T07:39:32;98491.44;;;0.52;87.25
9187;BME280;7273;48.902;9.410;2023-12-07T07:41:57;98489.38;;;0.48;87.16
9187;BME280;7273;48.902;9.410;2023-12-07T07:44:23;98497.78;;;0.51;87.68
9187;BME280;7273;48.902;9.410;2023-12-07T07:46:48;98494.50;;;0.49;87.29
9187;BME280;7273;48.902;9.410;2023-12-07T07:49:14;98492.88;;;0.55;87.38
9187;BME280;7273;48.902;9.410;2023-12-07T07:51:39;98483.84;;;0.49;87.58
9187;BME280;7273;48.902;9.410;2023-12-07T07:54:04;98490.84;;;0.57;87.81
9187;BME280;7273;48.902;9.410;2023-12-07T07:56:30;98492.03;;;0.54;87.69
9187;BME280;7273;48.902;9.410;2023-12-07T07:58:55;98493.28;;;0.52;87.55
9187;BME280;7273;48.902;9.410;2023-12-07T08:01:20;98498.63;;;0.58;87.78
9187;BME280;7273;48.902;9.410;2023-12-07T08:03:46;98498.22;;;0.61;87.54
9187;BME280;7273;48.902;9.410;2023-12-07T08:06:12;98508.84;;;0.55;87.37
9187;BME280;7273;48.902;9.410;2023-12-07T08:08:37;98508.44;;;0.58;87.73
9187;BME280;7273;48.902;9.410;2023-12-07T08:11:02;98506.19;;;0.61;87.36
9187;BME280;7273;48.902;9.410;2023-12-07T08:13:30;98500.47;;;0.64;87.42
9187;BME280;7273;48.902;9.410;2023-12-07T08:15:55;98500.25;;;0.59;87.00
9187;BME280;7273;48.902;9.410;2023-12-07T08:18:21;98494.34;;;0.64;87.48
9187;BME280;7273;48.902;9.410;2023-12-07T08:20:47;98495.78;;;0.73;87.39
9187;BME280;7273;48.902;9.410;2023-12-07T08:23:13;98499.25;;;0.67;87.33
9187;BME280;7273;48.902;9.410;2023-12-07T08:25:38;98508.44;;;0.71;87.29
9187;BME280;7273;48.902;9.410;2023-12-07T08:28:05;98500.88;;;0.74;87.14
9187;BME280;7273;48.902;9.410;2023-12-07T08:30:30;98501.09;;;0.73;87.36
9187;BME280;7273;48.902;9.410;2023-12-07T08:32:56;98501.91;;;0.73;87.42
9187;BME280;7273;48.902;9.410;2023-12-07T08:35:21;98502.34;;;0.77;87.50
9187;BME280;7273;48.902;9.410;2023-12-07T08:37:46;98504.78;;;0.78;87.13
9187;BME280;7273;48.902;9.410;2023-12-07T08:40:12;98501.72;;;0.81;87.64
9187;BME280;7273;48.902;9.410;2023-12-07T08:42:40;98497.41;;;0.93;87.71
9187;BME280;7273;48.902;9.410;2023-12-07T08:45:06;98511.53;;;1.00;87.96
9187;BME280;7273;48.902;9.410;2023-12-07T08:47:31;98503.97;;;1.04;87.99
9187;BME280;7273;48.902;9.410;2023-12-07T08:49:57;98506.41;;;1.12;87.87
9187;BME280;7273;48.902;9.410;2023-12-07T08:52:22;98503.13;;;1.23;87.36
9187;BME280;7273;48.902;9.410;2023-12-07T08:54:48;98495.13;;;1.29;87.87
9187;BME280;7273;48.902;9.410;2023-12-07T08:57:13;98492.66;;;1.48;87.72
9187;BME280;7273;48.902;9.410;2023-12-07T08:59:38;98495.09;;;1.56;88.33
9187;BME280;7273;48.902;9.410;2023-12-07T09:02:04;98484.22;;;1.64;87.90
9187;BME280;7273;48.902;9.410;2023-12-07T09:04:30;98482.34;;;1.71;88.74
9187;BME280;7273;48.902;9.410;2023-12-07T09:06:55;98485.56;;;1.86;88.90
9187;BME280;7273;48.902;9.410;2023-12-07T09:09:21;98496.94;;;2.19;88.89
9187;BME280;7273;48.902;9.410;2023-12-07T09:11:47;98481.78;;;2.44;89.39
9187;BME280;7273;48.902;9.410;2023-12-07T09:14:12;98473.41;;;2.71;89.12
9187;BME280;7273;48.902;9.410;2023-12-07T09:16:44;98473.94;;;2.80;89.24
9187;BME280;7273;48.902;9.410;2023-12-07T09:19:11;98478.28;;;2.81;89.36
9187;BME280;7273;48.902;9.410;2023-12-07T09:21:37;98481.97;;;2.80;88.99
9187;BME280;7273;48.902;9.410;2023-12-07T09:24:03;98472.94;;;2.81;89.45
9187;BME280;7273;48.902;9.410;2023-12-07T09:26:28;98467.41;;;2.76;88.97
9187;BME280;7273;48.902;9.410;2023-12-07T09:28:54;98461.22;;;2.82;89.32
9187;BME280;7273;48.902;9.410;2023-12-07T09:31:19;98460.19;;;2.83;89.12
9187;BME280;7273;48.902;9.410;2023-12-07T09:33:44;98453.19;;;2.82;89.25
9187;BME280;7273;48.902;9.410;2023-12-07T09:36:10;98463.00;;;2.88;88.92
9187;BME280;7273;48.902;9.410;2023-12-07T09:38:37;98452.28;;;2.95;88.72
9187;BME280;7273;48.902;9.410;2023-12-07T09:41:03;98445.84;;;3.02;88.67
9187;BME280;7273;48.902;9.410;2023-12-07T09:43:29;98446.84;;;3.08;88.46
9187;BME280;7273;48.902;9.410;2023-12-07T09:45:54;98450.41;;;3.20;88.27
9187;BME280;7273;48.902;9.410;2023-12-07T09:48:21;98443.38;;;3.25;87.89
9187;BME280;7273;48.902;9.410;2023-12-07T09:50:46;98443.53;;;3.30;87.39
9187;BME280;7273;48.902;9.410;2023-12-07T09:53:12;98445.00;;;3.26;86.47
9187;BME280;7273;48.902;9.410;2023-12-07T09:55:38;98445.16;;;3.31;86.63
9187;BME280;7273;48.902;9.410;2023-12-07T09:58:04;98440.94;;;3.42;86.28
9187;BME280;7273;48.902;9.410;2023-12-07T10:00:30;98437.38;;;3.48;86.02
9187;BME280;7273;48.902;9.410;2023-12-07T10:02:55;98439.06;;;3.42;85.54
9187;BME280;7273;48.902;9.410;2023-12-07T10:05:21;98435.00;;;3.40;85.75
9187;BME280;7273;48.902;9.410;2023-12-07T10:07:49;98419.88;;;3.52;85.84
9187;BME280;7273;48.902;9.410;2023-12-07T10:10:16;98418.38;;;3.56;85.83
9187;BME280;7273;48.902;9.410;2023-12-07T10:12:51;98422.72;;;3.50;85.32
9187;BME280;7273;48.902;9.410;2023-12-07T10:15:18;98419.34;;;3.43;85.55
9187;BME280;7273;48.902;9.410;2023-12-07T10:20:17;98413.00;;;3.56;85.70
9187;BME280;7273;48.902;9.410;2023-12-07T10:22:44;98409.66;;;3.60;85.08
9187;BME280;7273;48.902;9.410;2023-12-07T10:25:10;98418.22;;;3.69;84.97
9187;BME280;7273;48.902;9.410;2023-12-07T10:27:37;98409.97;;;3.70;85.03
9187;BME280;7273;48.902;9.410;2023-12-07T10:30:05;98400.78;;;3.66;84.55
9187;BME280;7273;48.902;9.410;2023-12-07T10:32:36;98395.72;;;3.76;84.58
9187;BME280;7273;48.902;9.410;2023-12-07T10:35:02;98398.94;;;3.78;84.07
9187;BME280;7273;48.902;9.410;2023-12-07T10:37:27;98400.28;;;3.87;84.16
9187;BME280;7273;48.902;9.410;2023-12-07T10:39:53;98392.50;;;3.86;83.76
9187;BME280;7273;48.902;9.410;2023-12-07T10:42:21;98397.91;;;3.97;84.11
9187;BME280;7273;48.902;9.410;2023-12-07T10:44:50;98379.31;;;4.02;84.13
9187;BME280;7273;48.902;9.410;2023-12-07T10:47:16;98386.28;;;4.03;84.28
9187;BME280;7273;48.902;9.410;2023-12-07T10:49:43;98380.47;;;4.06;84.35
9187;BME280;7273;48.902;9.410;2023-12-07T10:52:13;98375.63;;;4.15;84.03
9187;BME280;7273;48.902;9.410;2023-12-07T10:54:50;98372.59;;;4.11;83.89
9187;BME280;7273;48.902;9.410;2023-12-07T10:57:20;98382.50;;;4.23;83.91
9187;BME280;7273;48.902;9.410;2023-12-07T10:59:48;98385.78;;;4.25;83.32
9187;BME280;7273;48.902;9.410;2023-12-07T11:02:16;98372.75;;;4.28;83.44
9187;BME280;7273;48.902;9.410;2023-12-07T11:04:42;98376.69;;;4.26;83.33
9187;BME280;7273;48.902;9.410;2023-12-07T11:07:12;98379.97;;;4.28;83.34
9187;BME280;7273;48.902;9.410;2023-12-07T11:09:45;98373.81;;;4.27;82.93
9187;BME280;7273;48.902;9.410;2023-12-07T11:12:18;98374.28;;;4.36;82.81
9187;BME280;7273;48.902;9.410;2023-12-07T11:14:46;98368.03;;;4.42;82.39
9187;BME280;7273;48.902;9.410;2023-12-07T11:17:12;98362.78;;;4.47;82.22
9187;BME280;7273;48.902;9.410;2023-12-07T11:19:43;98351.03;;;4.48;82.11
9187;BME280;7273;48.902;9.410;2023-12-07T11:22:11;98343.59;;;4.50;82.17
9187;BME280;7273;48.902;9.410;2023-12-07T11:24:37;98342.53;;;4.51;81.59
9187;BME280;7273;48.902;9.410;2023-12-07T11:27:03;98330.19;;;4.50;81.63
9187;BME280;7273;48.902;9.410;2023-12-07T11:29:30;98318.56;;;4.56;81.37
9187;BME280;7273;48.902;9.410;2023-12-07T11:32:02;98318.31;;;4.57;81.46
9187;BME280;7273;48.902;9.410;2023-12-07T11:34:36;98319.97;;;4.58;81.25
9187;BME280;7273;48.902;9.410;2023-12-07T11:37:02;98311.59;;;4.66;80.04
9187;BME280;7273;48.902;9.410;2023-12-07T11:39:29;98320.06;;;4.63;79.76
9187;BME280;7273;48.902;9.410;2023-12-07T11:41:55;98313.78;;;4.69;79.50
9187;BME280;7273;48.902;9.410;2023-12-07T11:44:32;98316.00;;;4.72;79.38
9187;BME280;7273;48.902;9.410;2023-12-07T11:46:58;98306.66;;;4.75;79.65
9187;BME280;7273;48.902;9.410;2023-12-07T11:49:23;98301.19;;;4.81;78.93
9187;BME280;7273;48.902;9.410;2023-12-07T11:51:49;98291.91;;;4.84;78.39
9187;BME280;7273;48.902;9.410;2023-12-07T11:54:15;98291.66;;;4.85;78.78
9187;BME280;7273;48.902;9.410;2023-12-07T11:56:42;98280.22;;;4.90;78.87
9187;BME280;7273;48.902;9.410;2023-12-07T11:59:07;98289.69;;;4.92;79.15
9187;BME280;7273;48.902;9.410;2023-12-07T12:01:33;98276.63;;;4.96;79.18
9187;BME280;7273;48.902;9.410;2023-12-07T12:03:58;98274.97;;;4.95;77.74
9187;BME280;7273;48.902;9.410;2023-12-07T12:06:24;98272.41;;;5.00;78.31
9187;BME280;7273;48.902;9.410;2023-12-07T12:08:51;98269.50;;;5.01;78.00
9187;BME280;7273;48.902;9.410;2023-12-07T12:11:17;98260.63;;;5.01;77.35
9187;BME280;7273;48.902;9.410;2023-12-07T12:13:45;98251.31;;;5.03;77.16
9187;BME280;7273;48.902;9.410;2023-12-07T12:16:11;98255.38;;;5.06;76.06
9187;BME280;7273;48.902;9.410;2023-12-07T12:18:37;98241.97;;;5.06;76.41
9187;BME280;7273;48.902;9.410;2023-12-07T12:21:03;98239.16;;;5.12;76.47
9187;BME280;7273;48.902;9.410;2023-12-07T12:23:28;98232.78;;;5.13;77.11
9187;BME280;7273;48.902;9.410;2023-12-07T12:25:54;98235.56;;;5.18;77.41
9187;BME280;7273;48.902;9.410;2023-12-07T12:28:20;98228.00;;;5.15;77.94
9187;BME280;7273;48.902;9.410;2023-12-07T12:30:48;98228.78;;;5.16;76.15
9187;BME280;7273;48.902;9.410;2023-12-07T12:33:13;98223.44;;;5.16;74.03
9187;BME280;7273;48.902;9.410;2023-12-07T12:35:39;98213.28;;;5.18;73.40
9187;BME280;7273;48.902;9.410;2023-12-07T12:38:09;98206.78;;;5.14;73.54
9187;BME280;7273;48.902;9.410;2023-12-07T12:40:36;98213.88;;;5.20;73.87
9187;BME280;7273;48.902;9.410;2023-12-07T12:43:01;98209.66;;;5.24;74.24
9187;BME280;7273;48.902;9.410;2023-12-07T12:45:27;98211.44;;;5.18;73.06
9187;BME280;7273;48.902;9.410;2023-12-07T12:47:53;98208.50;;;5.20;73.72
9187;BME280;7273;48.902;9.410;2023-12-07T12:50:37;98212.22;;;5.19;72.88
9187;BME280;7273;48.902;9.410;2023-12-07T12:53:04;98203.72;;;5.22;72.79
9187;BME280;7273;48.902;9.410;2023-12-07T12:55:31;98205.34;;;5.23;72.95
9187;BME280;7273;48.902;9.410;2023-12-07T12:57:57;98186.59;;;5.23;73.84
9187;BME280;7273;48.902;9.410;2023-12-07T13:00:26;98185.28;;;5.25;74.46
9187;BME280;7273;48.902;9.410;2023-12-07T13:02:52;98187.16;;;5.25;72.55
9187;BME280;7273;48.902;9.410;2023-12-07T13:05:17;98188.19;;;5.24;73.67
9187;BME280;7273;48.902;9.410;2023-12-07T13:07:45;98184.00;;;5.28;74.46
9187;BME280;7273;48.902;9.410;2023-12-07T13:10:16;98185.13;;;5.32;74.91
9187;BME280;7273;48.902;9.410;2023-12-07T13:12:41;98191.56;;;5.31;74.83
9187;BME280;7273;48.902;9.410;2023-12-07T13:15:07;98192.13;;;5.33;75.04
9187;BME280;7273;48.902;9.410;2023-12-07T13:17:33;98192.03;;;5.28;74.40
9187;BME280;7273;48.902;9.410;2023-12-07T13:19:58;98189.94;;;5.30;73.32
9187;BME280;7273;48.902;9.410;2023-12-07T13:22:23;98186.91;;;5.26;73.97
9187;BME280;7273;48.902;9.410;2023-12-07T13:24:49;98172.59;;;5.21;72.37
9187;BME280;7273;48.902;9.410;2023-12-07T13:27:17;98178.06;;;5.26;73.42
9187;BME280;7273;48.902;9.410;2023-12-07T13:29:43;98175.97;;;5.28;71.81
9187;BME280;7273;48.902;9.410;2023-12-07T13:32:08;98168.06;;;5.21;71.24